Terminal Aerodrome Forecast
Issued by NWS Riverton, WY

Home | Current Version | Previous Version | Text Only | Print | Product List | Glossary On
Versions: 1 2 3 4 5 6 7 8 9 10 11 12 13 14 15 16 17
760
FTUS45 KRIW 170538
TAFRIW
TAF
KRIW 170538Z 1706/1806 VRB04KT P6SM VCFG SKC
     FM171200 VRB03KT 3/4SM BR VV003
     FM171800 VRB03KT 2SM BR BKN004
     FM172030 VRB03KT P6SM VCFG FEW005=

USA.gov is the U.S. government's official web portal to all federal, state and local government web resources and services.